Time;durP1;ratioP1;P1;durP2;ratioP2;P2;SDS_P1;SDS_P2;PMS_P1;PMS_P2;Temp;Humidity;BMP_temperature;BMP_pressure;BME280_temperature;BME280_humidity;BME280_pressure;Samples;Min_cycle;Max_cycle;Signal;HPM_P1;HPM_P2
2021/09/11 00:00:15;;;;;;;24.65;13.73;;;;;;;;;;4992611;28;20112;-75
2021/09/11 00:02:42;;;;;;;24.48;14.40;;;;;;;;;;4974746;28;20026;-73
2021/09/11 00:05:08;;;;;;;24.42;13.98;;;;;;;;;;4992280;28;20060;-75
2021/09/11 00:07:33;;;;;;;24.83;14.30;;;;;;;;;;4992296;28;20030;-74
2021/09/11 00:09:59;;;;;;;24.88;14.25;;;;;;;;;;4958472;28;20034;-74
2021/09/11 00:12:24;;;;;;;21.70;13.82;;;;;;;;;;4974619;28;20117;-73
2021/09/11 00:14:50;;;;;;;20.45;14.05;;;;;;;;;;4992135;28;20053;-74
2021/09/11 00:17:15;;;;;;;21.63;13.80;;;;;;;;;;4992110;28;20030;-73
2021/09/11 00:19:41;;;;;;;24.08;14.60;;;;;;;;;;4974339;28;20030;-73
2021/09/11 00:22:06;;;;;;;22.83;13.80;;;;;;;;;;4974575;28;20494;-73
2021/09/11 00:24:32;;;;;;;23.25;14.27;;;;;;;;;;4974599;28;20030;-73
2021/09/11 00:26:57;;;;;;;29.75;18.77;;;;;;;;;;4974221;28;20358;-74
2021/09/11 00:29:23;;;;;;;38.92;24.58;;;;;;;;;;4991777;28;20046;-73
2021/09/11 00:31:49;;;;;;;27.05;14.40;;;;;;;;;;4991443;28;20546;-73
2021/09/11 00:34:14;;;;;;;23.83;14.68;;;;;;;;;;4973077;28;20121;-74
2021/09/11 00:36:40;;;;;;;26.67;13.65;;;;;;;;;;4974017;28;20027;-73
2021/09/11 00:39:05;;;;;;;23.80;14.63;;;;;;;;;;4991785;28;20029;-74
2021/09/11 00:41:31;;;;;;;25.50;14.82;;;;;;;;;;4991816;28;20101;-74
2021/09/11 00:43:56;;;;;;;24.25;15.52;;;;;;;;;;4973929;28;20437;-75
2021/09/11 00:46:22;;;;;;;24.98;13.85;;;;;;;;;;4974177;28;20451;-73
2021/09/11 00:48:47;;;;;;;21.05;13.63;;;;;;;;;;4973736;28;20033;-75
2021/09/11 00:51:13;;;;;;;21.88;13.35;;;;;;;;;;4991559;28;20081;-74
2021/09/11 00:53:39;;;;;;;19.77;13.05;;;;;;;;;;4991533;28;20019;-74
2021/09/11 00:56:05;;;;;;;22.15;14.82;;;;;;;;;;4992283;28;20023;-74
2021/09/11 00:58:31;;;;;;;20.95;13.52;;;;;;;;;;4991869;28;20101;-74
2021/09/11 01:00:56;;;;;;;22.48;13.57;;;;;;;;;;4991624;28;20022;-74
2021/09/11 01:03:22;;;;;;;30.88;15.75;;;;;;;;;;4974011;28;20550;-74
2021/09/11 01:05:47;;;;;;;23.77;14.48;;;;;;;;;;4973465;28;20495;-74
2021/09/11 01:08:13;;;;;;;23.98;14.25;;;;;;;;;;4973832;28;20036;-75
2021/09/11 01:10:39;;;;;;;25.83;14.65;;;;;;;;;;4973762;28;20029;-75
2021/09/11 01:13:05;;;;;;;22.50;14.60;;;;;;;;;;4973671;28;20223;-74
2021/09/11 01:15:40;;;;;;;24.67;15.27;;;;;;;;;;4991167;28;20153;-73
2021/09/11 01:18:07;;;;;;;21.05;13.70;;;;;;;;;;4973644;28;20486;-74
2021/09/11 01:20:34;;;;;;;23.52;14.18;;;;;;;;;;4973646;28;20031;-72
2021/09/11 01:22:59;;;;;;;26.92;14.32;;;;;;;;;;4990901;28;20022;-73
2021/09/11 01:25:25;;;;;;;26.27;15.18;;;;;;;;;;4990934;28;20026;-73
2021/09/11 01:27:51;;;;;;;22.88;14.35;;;;;;;;;;4990745;28;20487;-74
2021/09/11 01:30:19;;;;;;;22.13;15.10;;;;;;;;;;4972895;28;20133;-74
2021/09/11 01:32:44;;;;;;;22.23;14.63;;;;;;;;;;4990523;28;20018;-74
2021/09/11 01:35:11;;;;;;;23.58;14.02;;;;;;;;;;4990833;28;20407;-74
2021/09/11 01:37:37;;;;;;;28.83;21.15;;;;;;;;;;4990721;28;20027;-74
2021/09/11 01:40:05;;;;;;;24.38;16.15;;;;;;;;;;4972938;28;20433;-74
2021/09/11 01:42:31;;;;;;;24.55;14.32;;;;;;;;;;4990791;28;20088;-74
2021/09/11 01:45:00;;;;;;;25.55;15.85;;;;;;;;;;4990455;28;20479;-74
2021/09/11 01:47:26;;;;;;;22.80;15.48;;;;;;;;;;4990687;28;20026;-73
2021/09/11 01:49:52;;;;;;;25.95;13.30;;;;;;;;;;4990231;28;20049;-74
2021/09/11 01:52:19;;;;;;;21.50;13.48;;;;;;;;;;4990637;28;20031;-74
2021/09/11 01:54:45;;;;;;;30.77;15.15;;;;;;;;;;4990335;28;20030;-74
2021/09/11 01:57:11;;;;;;;21.52;14.13;;;;;;;;;;4972967;28;20041;-74
2021/09/11 01:59:37;;;;;;;23.45;14.05;;;;;;;;;;4990371;28;20034;-74
2021/09/11 02:02:04;;;;;;;26.08;14.70;;;;;;;;;;4990554;28;20402;-73
2021/09/11 02:04:30;;;;;;;23.33;14.55;;;;;;;;;;4972925;28;20379;-74
2021/09/11 02:06:56;;;;;;;22.63;14.38;;;;;;;;;;4990153;28;20526;-74
2021/09/11 02:09:22;;;;;;;23.73;15.48;;;;;;;;;;4990796;28;20033;-75
2021/09/11 02:11:48;;;;;;;22.95;16.08;;;;;;;;;;4990583;28;20467;-74
2021/09/11 02:14:14;;;;;;;25.33;15.32;;;;;;;;;;4990219;28;20105;-73
2021/09/11 02:16:40;;;;;;;26.65;14.73;;;;;;;;;;4990142;28;20026;-73
2021/09/11 02:19:06;;;;;;;23.20;14.93;;;;;;;;;;4989961;28;20030;-73
2021/09/11 02:21:32;;;;;;;28.20;15.55;;;;;;;;;;4972814;28;20033;-76
2021/09/11 02:23:57;;;;;;;22.13;13.55;;;;;;;;;;4990190;28;20034;-73
2021/09/11 02:26:23;;;;;;;25.25;14.48;;;;;;;;;;4972727;28;20045;-74
2021/09/11 02:28:49;;;;;;;25.17;14.77;;;;;;;;;;4989825;28;20030;-73
2021/09/11 02:31:14;;;;;;;28.25;16.00;;;;;;;;;;4972683;28;20367;-74
2021/09/11 02:33:42;;;;;;;22.98;15.40;;;;;;;;;;4990097;28;20024;-76
2021/09/11 02:36:07;;;;;;;26.70;15.73;;;;;;;;;;4972463;28;20495;-74
2021/09/11 02:38:33;;;;;;;24.35;16.33;;;;;;;;;;4990131;28;20022;-74
2021/09/11 02:40:59;;;;;;;23.52;16.27;;;;;;;;;;4990017;28;20057;-74
2021/09/11 02:43:25;;;;;;;24.90;14.70;;;;;;;;;;4990083;28;20045;-73
2021/09/11 02:45:50;;;;;;;24.83;14.48;;;;;;;;;;4972546;28;20027;-72
2021/09/11 02:48:16;;;;;;;25.80;14.98;;;;;;;;;;4972519;28;20050;-74
2021/09/11 02:50:41;;;;;;;26.10;15.75;;;;;;;;;;4990086;28;20407;-74
2021/09/11 02:53:07;;;;;;;22.15;14.13;;;;;;;;;;4972346;28;20391;-74
2021/09/11 02:55:32;;;;;;;25.00;15.95;;;;;;;;;;4989888;28;20089;-74
2021/09/11 02:57:58;;;;;;;22.38;14.88;;;;;;;;;;4992659;28;20034;-74
2021/09/11 03:00:23;;;;;;;23.45;14.63;;;;;;;;;;4993682;28;20037;-74
2021/09/11 03:02:49;;;;;;;23.77;14.43;;;;;;;;;;4993423;28;20018;-74
2021/09/11 03:05:15;;;;;;;25.42;15.40;;;;;;;;;;4975949;28;20146;-72
2021/09/11 03:07:40;;;;;;;18.75;14.38;;;;;;;;;;4993903;28;20030;-73
2021/09/11 03:10:06;;;;;;;21.60;15.07;;;;;;;;;;4993198;28;20117;-74
2021/09/11 03:12:32;;;;;;;20.85;14.35;;;;;;;;;;4975866;28;20026;-72
2021/09/11 03:14:57;;;;;;;23.10;14.20;;;;;;;;;;4975955;28;20030;-73
2021/09/11 03:17:23;;;;;;;26.33;15.50;;;;;;;;;;4975733;28;20023;-72
2021/09/11 03:19:48;;;;;;;22.80;14.43;;;;;;;;;;4993489;28;20023;-74
2021/09/11 03:22:14;;;;;;;26.67;15.45;;;;;;;;;;4993363;28;20030;-73
2021/09/11 03:24:40;;;;;;;22.10;15.05;;;;;;;;;;4993414;28;20121;-73
2021/09/11 03:27:06;;;;;;;22.15;14.43;;;;;;;;;;4975492;28;20648;-73
2021/09/11 03:29:32;;;;;;;21.77;14.57;;;;;;;;;;4992857;28;20054;-72
2021/09/11 03:31:57;;;;;;;22.73;14.18;;;;;;;;;;4992655;28;20026;-74
2021/09/11 03:34:23;;;;;;;31.85;19.85;;;;;;;;;;4975399;28;20026;-73
2021/09/11 03:36:50;;;;;;;21.00;14.60;;;;;;;;;;4992866;28;20072;-74
2021/09/11 03:39:15;;;;;;;26.02;16.50;;;;;;;;;;4975651;28;20390;-74
2021/09/11 03:41:41;;;;;;;24.38;14.63;;;;;;;;;;4993339;28;20094;-74
2021/09/11 03:44:08;;;;;;;24.60;14.48;;;;;;;;;;4993424;28;20409;-74
2021/09/11 03:46:34;;;;;;;24.08;14.40;;;;;;;;;;4975220;28;20053;-75
2021/09/11 03:49:00;;;;;;;22.77;14.55;;;;;;;;;;4992512;28;20030;-75
2021/09/11 03:51:26;;;;;;;21.83;14.88;;;;;;;;;;4992605;28;20034;-74
2021/09/11 03:53:51;;;;;;;21.48;15.23;;;;;;;;;;4992492;28;20034;-74
2021/09/11 03:56:16;;;;;;;23.90;15.13;;;;;;;;;;4993020;28;20439;-73
2021/09/11 03:58:42;;;;;;;27.13;14.85;;;;;;;;;;4974818;28;20025;-75
2021/09/11 04:01:07;;;;;;;27.65;15.10;;;;;;;;;;4992267;28;20038;-74
2021/09/11 04:03:34;;;;;;;27.27;15.30;;;;;;;;;;4992602;28;20022;-74
2021/09/11 04:06:00;;;;;;;25.75;16.38;;;;;;;;;;4992229;28;20529;-74
2021/09/11 04:08:25;;;;;;;26.02;15.00;;;;;;;;;;4992298;28;20019;-72
2021/09/11 04:10:52;;;;;;;20.60;14.57;;;;;;;;;;4974980;28;20054;-73
2021/09/11 04:13:17;;;;;;;26.58;15.85;;;;;;;;;;4992417;28;20423;-73
2021/09/11 04:15:43;;;;;;;25.67;15.57;;;;;;;;;;4974779;28;20168;-73
2021/09/11 04:18:08;;;;;;;21.13;14.77;;;;;;;;;;4992172;28;20478;-74
2021/09/11 04:20:35;;;;;;;25.52;16.30;;;;;;;;;;4992129;28;20036;-74
2021/09/11 04:23:01;;;;;;;30.90;15.20;;;;;;;;;;4992181;28;20463;-75
2021/09/11 04:25:26;;;;;;;23.52;14.05;;;;;;;;;;4992286;28;20228;-73
2021/09/11 04:27:53;;;;;;;23.60;14.73;;;;;;;;;;4991874;28;20105;-74
2021/09/11 04:30:19;;;;;;;27.33;16.77;;;;;;;;;;4974118;28;20046;-74
2021/09/11 04:32:44;;;;;;;23.08;15.77;;;;;;;;;;4974406;28;20402;-75
2021/09/11 04:35:10;;;;;;;23.63;15.57;;;;;;;;;;4991846;28;20041;-74
2021/09/11 04:37:36;;;;;;;21.98;15.15;;;;;;;;;;4974393;28;20139;-74
2021/09/11 04:40:02;;;;;;;27.02;15.65;;;;;;;;;;4991681;28;20030;-75
2021/09/11 04:42:27;;;;;;;24.98;15.18;;;;;;;;;;4991662;28;20076;-73
2021/09/11 04:44:53;;;;;;;25.50;15.40;;;;;;;;;;4991503;28;20031;-74
2021/09/11 04:47:18;;;;;;;20.33;14.13;;;;;;;;;;4991536;28;20113;-74
2021/09/11 04:49:44;;;;;;;21.58;14.35;;;;;;;;;;4991618;28;20092;-74
2021/09/11 04:52:09;;;;;;;27.40;15.02;;;;;;;;;;4973952;28;20144;-75
2021/09/11 04:54:35;;;;;;;26.48;16.13;;;;;;;;;;4991491;28;20034;-74
2021/09/11 04:57:00;;;;;;;21.85;15.60;;;;;;;;;;4991168;28;20040;-73
2021/09/11 04:59:26;;;;;;;23.17;14.57;;;;;;;;;;4991802;28;20490;-74
2021/09/11 05:01:52;;;;;;;26.27;15.15;;;;;;;;;;4974174;28;20044;-74
2021/09/11 05:04:18;;;;;;;23.85;15.25;;;;;;;;;;4974415;28;20435;-74
2021/09/11 05:06:43;;;;;;;19.40;13.55;;;;;;;;;;4975308;28;20034;-74
2021/09/11 05:09:09;;;;;;;21.50;15.68;;;;;;;;;;4974472;28;20650;-74
2021/09/11 05:11:34;;;;;;;24.33;15.63;;;;;;;;;;4991303;28;20034;-74
2021/09/11 05:14:00;;;;;;;24.42;15.23;;;;;;;;;;4973254;28;20026;-74
2021/09/11 05:16:25;;;;;;;23.55;15.27;;;;;;;;;;4990989;28;20387;-74
2021/09/11 05:18:51;;;;;;;26.35;14.40;;;;;;;;;;4973323;28;20115;-74
2021/09/11 05:21:17;;;;;;;26.63;14.23;;;;;;;;;;4990500;28;20077;-73
2021/09/11 05:23:42;;;;;;;22.63;13.77;;;;;;;;;;4973562;28;20028;-73
2021/09/11 05:26:09;;;;;;;22.00;14.75;;;;;;;;;;4989689;28;20026;-74
2021/09/11 05:28:34;;;;;;;23.05;13.77;;;;;;;;;;4990664;28;20034;-73
2021/09/11 05:31:00;;;;;;;25.23;15.55;;;;;;;;;;4990987;28;20031;-73
2021/09/11 05:33:26;;;;;;;26.17;14.55;;;;;;;;;;4973957;28;20030;-73
2021/09/11 05:35:51;;;;;;;22.88;14.15;;;;;;;;;;4990995;28;20030;-73
2021/09/11 05:38:17;;;;;;;21.50;14.38;;;;;;;;;;4973927;28;20026;-73
2021/09/11 05:40:42;;;;;;;21.13;14.48;;;;;;;;;;4991966;28;20030;-74
2021/09/11 05:43:08;;;;;;;23.80;14.35;;;;;;;;;;4991344;28;20372;-72
2021/09/11 05:45:34;;;;;;;26.17;15.00;;;;;;;;;;4975340;28;20081;-73
2021/09/11 05:47:59;;;;;;;21.92;14.52;;;;;;;;;;4975206;28;20031;-73
2021/09/11 05:50:25;;;;;;;27.05;14.57;;;;;;;;;;4975533;28;20034;-73
2021/09/11 05:52:50;;;;;;;21.52;13.70;;;;;;;;;;4974286;28;20073;-72
2021/09/11 05:55:16;;;;;;;21.40;15.02;;;;;;;;;;4973686;28;20097;-74
2021/09/11 05:57:42;;;;;;;30.60;14.70;;;;;;;;;;4991051;28;20522;-75
2021/09/11 06:00:08;;;;;;;23.00;14.52;;;;;;;;;;4990910;28;20053;-74
2021/09/11 06:02:34;;;;;;;18.98;12.75;;;;;;;;;;4973101;28;20033;-74
2021/09/11 06:04:59;;;;;;;22.13;14.45;;;;;;;;;;4990886;28;20390;-73
2021/09/11 06:07:28;;;;;;;24.23;13.77;;;;;;;;;;4990998;28;20386;-74
2021/09/11 06:09:53;;;;;;;23.13;14.50;;;;;;;;;;4991009;28;20080;-73
2021/09/11 06:12:19;;;;;;;21.10;13.38;;;;;;;;;;4973220;28;20034;-73
2021/09/11 06:14:44;;;;;;;25.80;14.63;;;;;;;;;;4973390;28;20034;-72
2021/09/11 06:17:10;;;;;;;27.30;15.75;;;;;;;;;;4990517;28;20030;-74
2021/09/11 06:19:36;;;;;;;21.10;14.45;;;;;;;;;;4990680;28;20045;-73
2021/09/11 06:22:03;;;;;;;23.77;14.18;;;;;;;;;;4990742;28;20223;-73
2021/09/11 06:24:29;;;;;;;21.60;13.63;;;;;;;;;;4973208;28;20026;-73
2021/09/11 06:26:54;;;;;;;22.35;13.77;;;;;;;;;;4990920;28;20478;-74
2021/09/11 06:29:21;;;;;;;18.25;12.93;;;;;;;;;;4972862;28;20180;-73
2021/09/11 06:31:46;;;;;;;28.77;14.57;;;;;;;;;;4975707;28;20325;-74
2021/09/11 06:34:11;;;;;;;20.10;14.52;;;;;;;;;;4994467;28;20069;-74
2021/09/11 06:36:37;;;;;;;21.85;14.30;;;;;;;;;;4977119;28;20089;-74
2021/09/11 06:39:03;;;;;;;23.13;13.90;;;;;;;;;;4976609;28;20081;-74
2021/09/11 06:41:28;;;;;;;21.90;13.48;;;;;;;;;;4994518;28;20054;-73
2021/09/11 06:43:56;;;;;;;24.20;13.50;;;;;;;;;;4994652;28;20030;-74
2021/09/11 06:46:21;;;;;;;21.45;13.80;;;;;;;;;;4994437;28;20026;-73
2021/09/11 06:48:47;;;;;;;20.15;13.20;;;;;;;;;;4976709;28;20077;-74
2021/09/11 06:51:13;;;;;;;19.38;13.70;;;;;;;;;;4977071;28;20561;-74
2021/09/11 06:53:39;;;;;;;25.20;13.32;;;;;;;;;;4976418;28;20030;-74
2021/09/11 06:56:06;;;;;;;19.70;13.50;;;;;;;;;;4994007;28;20471;-74
2021/09/11 06:58:32;;;;;;;18.25;13.20;;;;;;;;;;4994389;28;20088;-74
2021/09/11 07:00:58;;;;;;;22.30;12.85;;;;;;;;;;4994047;28;20030;-74
2021/09/11 07:03:24;;;;;;;16.73;11.93;;;;;;;;;;4994012;28;20275;-73
2021/09/11 07:05:49;;;;;;;20.05;12.02;;;;;;;;;;4976541;28;20454;-73
2021/09/11 07:08:15;;;;;;;17.30;11.57;;;;;;;;;;4993789;28;20109;-73
2021/09/11 07:10:43;;;;;;;19.13;12.50;;;;;;;;;;4976545;28;20034;-72
2021/09/11 07:13:08;;;;;;;17.67;11.45;;;;;;;;;;4993252;28;20031;-73
2021/09/11 07:15:35;;;;;;;19.23;12.18;;;;;;;;;;4993712;28;20030;-73
2021/09/11 07:18:01;;;;;;;19.52;11.55;;;;;;;;;;4993640;28;20045;-74
2021/09/11 07:20:29;;;;;;;17.02;12.02;;;;;;;;;;4993574;28;20471;-74
2021/09/11 07:22:55;;;;;;;16.13;11.65;;;;;;;;;;4993904;28;20018;-74
2021/09/11 07:25:20;;;;;;;18.08;11.88;;;;;;;;;;4993366;28;20037;-73
2021/09/11 07:27:46;;;;;;;18.33;11.55;;;;;;;;;;4976020;28;20406;-74
2021/09/11 07:30:12;;;;;;;23.13;13.02;;;;;;;;;;4975770;28;20050;-73
2021/09/11 07:32:37;;;;;;;16.65;11.93;;;;;;;;;;4993557;28;20383;-73
2021/09/11 07:35:03;;;;;;;27.23;15.77;;;;;;;;;;4993068;28;20080;-73
2021/09/11 07:37:29;;;;;;;19.10;12.43;;;;;;;;;;4993091;28;20038;-74
2021/09/11 07:39:55;;;;;;;20.00;12.10;;;;;;;;;;4993168;28;20033;-73
2021/09/11 07:42:20;;;;;;;18.23;12.45;;;;;;;;;;4974770;28;20471;-72
2021/09/11 07:44:46;;;;;;;17.73;12.35;;;;;;;;;;4993342;28;20061;-74
2021/09/11 07:47:12;;;;;;;18.05;12.05;;;;;;;;;;4992980;28;20242;-74
2021/09/11 07:49:37;;;;;;;22.95;11.68;;;;;;;;;;4975387;28;20030;-74
2021/09/11 07:52:04;;;;;;;25.65;12.35;;;;;;;;;;4992726;28;20034;-74
2021/09/11 07:54:30;;;;;;;20.83;12.23;;;;;;;;;;4959693;28;20089;-72
2021/09/11 07:56:55;;;;;;;27.08;13.55;;;;;;;;;;4993160;28;20058;-74
2021/09/11 07:59:20;;;;;;;29.77;13.73;;;;;;;;;;4992821;28;20382;-74
2021/09/11 08:01:46;;;;;;;28.10;14.32;;;;;;;;;;4993221;28;20282;-75
2021/09/11 08:04:11;;;;;;;22.15;12.65;;;;;;;;;;4992676;28;20026;-75
2021/09/11 08:06:37;;;;;;;21.17;11.48;;;;;;;;;;4976248;28;20062;-75
2021/09/11 08:09:02;;;;;;;21.33;11.95;;;;;;;;;;4994803;28;20505;-75
2021/09/11 08:11:28;;;;;;;20.67;11.82;;;;;;;;;;4976388;28;20475;-76
2021/09/11 08:13:54;;;;;;;13.10;10.02;;;;;;;;;;4975715;28;20030;-80
2021/09/11 08:16:20;;;;;;;16.20;9.68;;;;;;;;;;4975380;28;20466;-78
2021/09/11 08:18:46;;;;;;;18.20;10.90;;;;;;;;;;4993299;28;20053;-78
2021/09/11 08:21:11;;;;;;;14.43;10.90;;;;;;;;;;4992476;28;20065;-79
2021/09/11 08:23:38;;;;;;;19.23;11.30;;;;;;;;;;4992881;28;20041;-81
2021/09/11 08:26:04;;;;;;;16.20;10.20;;;;;;;;;;4975837;28;20431;-79
2021/09/11 08:28:30;;;;;;;16.50;10.98;;;;;;;;;;4992599;28;20029;-79
2021/09/11 08:30:56;;;;;;;18.05;10.77;;;;;;;;;;4992313;28;20058;-76
2021/09/11 08:33:22;;;;;;;19.27;12.18;;;;;;;;;;4974637;28;20065;-81
2021/09/11 08:35:47;;;;;;;20.33;10.98;;;;;;;;;;4974883;28;20036;-79
2021/09/11 08:38:13;;;;;;;21.08;11.70;;;;;;;;;;4974273;28;20435;-78
2021/09/11 08:40:40;;;;;;;19.65;11.07;;;;;;;;;;4992503;28;20049;-79
2021/09/11 08:43:07;;;;;;;20.80;11.30;;;;;;;;;;4974688;28;20671;-78
2021/09/11 08:45:33;;;;;;;16.98;10.63;;;;;;;;;;4975230;28;20038;-77
2021/09/11 08:48:01;;;;;;;27.00;14.18;;;;;;;;;;4993571;28;20701;-80
2021/09/11 08:50:28;;;;;;;17.67;10.52;;;;;;;;;;4992600;28;20030;-79
2021/09/11 08:52:54;;;;;;;16.80;10.43;;;;;;;;;;4991747;28;20422;-79
2021/09/11 08:55:20;;;;;;;16.98;10.45;;;;;;;;;;4990751;28;20034;-77
2021/09/11 08:58:03;;;;;;;14.48;9.68;;;;;;;;;;4992085;28;20037;-78
2021/09/11 09:00:47;;;;;;;14.60;9.82;;;;;;;;;;4991934;28;20033;-78
2021/09/11 09:03:30;;;;;;;21.55;9.48;;;;;;;;;;4991651;28;20053;-80
2021/09/11 09:06:29;;;;;;;26.67;11.52;;;;;;;;;;4992146;28;20517;-78
2021/09/11 09:09:10;;;;;;;12.80;9.45;;;;;;;;;;4991776;28;20034;-78
2021/09/11 09:11:36;;;;;;;;;;;;;;;;;;4992342;28;20026;-78
2021/09/11 09:14:11;;;;;;;11.93;8.27;;;;;;;;;;4990396;28;19913;-79
2021/09/11 09:16:37;;;;;;;18.00;10.18;;;;;;;;;;4991921;28;20022;-79
2021/09/11 09:19:17;;;;;;;14.55;8.95;;;;;;;;;;4991826;28;20034;-77
2021/09/11 09:21:44;;;;;;;16.77;8.45;;;;;;;;;;4991937;28;20430;-79
2021/09/11 09:24:12;;;;;;;11.77;8.07;;;;;;;;;;4991650;28;20014;-78
2021/09/11 09:26:51;;;;;;;14.68;9.98;;;;;;;;;;4991739;28;20510;-78
2021/09/11 09:29:17;;;;;;;9.60;6.28;;;;;;;;;;4991301;28;20552;-74
2021/09/11 09:31:44;;;;;;;14.27;7.82;;;;;;;;;;4991698;28;20030;-75
2021/09/11 09:34:10;;;;;;;14.40;8.93;;;;;;;;;;4973850;28;20089;-75
2021/09/11 09:36:40;;;;;;;14.23;8.95;;;;;;;;;;4991151;28;20030;-75
2021/09/11 09:39:09;;;;;;;12.32;8.90;;;;;;;;;;4974083;28;20054;-75
2021/09/11 09:41:49;;;;;;;18.85;8.82;;;;;;;;;;4991442;28;20331;-75
2021/09/11 09:44:19;;;;;;;16.98;9.75;;;;;;;;;;4991286;28;20057;-75
2021/09/11 09:46:46;;;;;;;18.02;10.90;;;;;;;;;;4991473;28;20034;-74
2021/09/11 09:49:16;;;;;;;12.32;9.00;;;;;;;;;;4973673;28;20554;-75
2021/09/11 09:51:43;;;;;;;21.58;9.25;;;;;;;;;;4991416;28;20066;-74
2021/09/11 09:54:09;;;;;;;10.57;8.55;;;;;;;;;;4957438;28;20050;-77
2021/09/11 09:56:35;;;;;;;15.68;9.23;;;;;;;;;;4973610;28;20026;-75
2021/09/11 09:59:01;;;;;;;15.35;9.77;;;;;;;;;;4991186;28;20371;-75
2021/09/11 10:01:28;;;;;;;16.05;9.43;;;;;;;;;;4991014;28;20030;-77
2021/09/11 10:03:54;;;;;;;19.45;9.93;;;;;;;;;;4991332;28;20041;-74
2021/09/11 10:06:32;;;;;;;16.63;9.52;;;;;;;;;;4974070;28;20109;-75
2021/09/11 10:09:05;;;;;;;22.65;10.82;;;;;;;;;;4991334;28;20104;-74
2021/09/11 10:11:49;;;;;;;17.27;9.75;;;;;;;;;;4990770;28;20022;-74
2021/09/11 10:14:16;;;;;;;13.98;8.63;;;;;;;;;;4990438;28;20022;-75
2021/09/11 10:17:04;;;;;;;12.75;8.65;;;;;;;;;;4991742;28;20157;-73
2021/09/11 10:19:32;;;;;;;12.45;9.00;;;;;;;;;;4990464;28;20033;-73
2021/09/11 10:22:21;;;;;;;14.07;8.57;;;;;;;;;;4991775;28;20026;-73
2021/09/11 10:25:00;;;;;;;15.13;10.32;;;;;;;;;;4991182;28;20034;-74
2021/09/11 10:27:33;;;;;;;12.82;8.85;;;;;;;;;;4990710;28;20101;-75
2021/09/11 10:29:58;;;;;;;13.68;8.95;;;;;;;;;;4990536;28;20498;-75
2021/09/11 10:32:27;;;;;;;22.27;9.98;;;;;;;;;;4990207;28;20031;-75
2021/09/11 10:34:54;;;;;;;16.40;9.63;;;;;;;;;;4990524;28;20026;-74
2021/09/11 10:37:39;;;;;;;13.75;9.27;;;;;;;;;;4990308;28;20030;-74
2021/09/11 10:40:36;;;;;;;15.50;10.52;;;;;;;;;;4990676;28;20030;-75
2021/09/11 10:43:09;;;;;;;14.50;10.18;;;;;;;;;;4972892;28;20034;-74
2021/09/11 10:45:42;;;;;;;15.75;9.60;;;;;;;;;;4973902;28;20100;-73
2021/09/11 10:48:33;;;;;;;15.15;9.88;;;;;;;;;;4990608;28;20165;-74
2021/09/11 10:51:17;;;;;;;18.00;9.82;;;;;;;;;;4993937;28;20048;-74
2021/09/11 10:54:10;;;;;;;15.23;9.90;;;;;;;;;;4991249;28;20118;-76
2021/09/11 10:56:51;;;;;;;16.98;10.00;;;;;;;;;;4990108;28;20562;-74
2021/09/11 10:59:19;;;;;;;;;;;;;;;;;;4990422;28;20057;-74
2021/09/11 11:01:58;;;;;;;14.20;9.38;;;;;;;;;;4990637;28;19909;-74
2021/09/11 11:04:31;;;;;;;15.50;9.88;;;;;;;;;;4989790;28;20034;-73
2021/09/11 11:06:59;;;;;;;12.63;9.30;;;;;;;;;;4990135;28;20026;-73
2021/09/11 11:09:25;;;;;;;20.35;9.27;;;;;;;;;;4990125;28;20026;-76
2021/09/11 11:11:53;;;;;;;19.05;12.70;;;;;;;;;;4990205;28;20030;-76
2021/09/11 11:14:18;;;;;;;12.98;7.97;;;;;;;;;;4989876;28;20097;-74
2021/09/11 11:16:52;;;;;;;18.73;10.13;;;;;;;;;;4989912;28;20447;-74
2021/09/11 11:19:26;;;;;;;23.25;11.25;;;;;;;;;;4992190;28;20130;-73
2021/09/11 11:22:00;;;;;;;19.00;10.02;;;;;;;;;;4993531;28;20030;-75
2021/09/11 11:24:35;;;;;;;16.13;8.77;;;;;;;;;;4976034;28;20034;-75
2021/09/11 11:27:09;;;;;;;12.70;9.13;;;;;;;;;;4993984;28;20026;-76
2021/09/11 11:29:35;;;;;;;16.00;10.10;;;;;;;;;;4993059;28;20091;-77
2021/09/11 11:32:03;;;;;;;12.43;9.35;;;;;;;;;;4993436;28;20062;-75
2021/09/11 11:34:29;;;;;;;14.65;9.95;;;;;;;;;;4975858;28;20117;-75
2021/09/11 11:36:58;;;;;;;13.73;9.27;;;;;;;;;;4993796;28;20046;-75
2021/09/11 11:39:29;;;;;;;16.85;8.82;;;;;;;;;;4993484;28;20030;-75
2021/09/11 11:41:57;;;;;;;;;;;;;;;;;;4993744;28;20026;-74
2021/09/11 11:44:23;;;;;;;10.18;7.65;;;;;;;;;;4975752;28;20464;-74
2021/09/11 11:46:53;;;;;;;14.55;9.07;;;;;;;;;;4993178;28;20478;-76
2021/09/11 11:49:20;;;;;;;12.83;9.23;;;;;;;;;;4975661;28;20034;-75
2021/09/11 11:51:55;;;;;;;13.50;10.00;;;;;;;;;;4975679;28;20267;-73
2021/09/11 11:54:21;;;;;;;13.07;8.77;;;;;;;;;;4975749;28;20053;-74
2021/09/11 11:56:49;;;;;;;11.98;9.15;;;;;;;;;;4976625;28;20026;-75
2021/09/11 11:59:24;;;;;;;13.73;9.35;;;;;;;;;;4993386;28;20022;-74
2021/09/11 12:01:51;;;;;;;14.02;9.70;;;;;;;;;;4993144;28;20522;-75
2021/09/11 12:04:17;;;;;;;12.27;9.65;;;;;;;;;;4992692;28;20486;-73
2021/09/11 12:06:48;;;;;;;14.75;10.50;;;;;;;;;;4992676;28;20386;-75
2021/09/11 12:09:17;;;;;;;13.75;10.65;;;;;;;;;;4992553;28;20022;-75
2021/09/11 12:11:46;;;;;;;21.88;12.02;;;;;;;;;;4992415;28;20144;-75
2021/09/11 12:14:14;;;;;;;19.35;12.77;;;;;;;;;;4992601;28;20067;-74
2021/09/11 12:16:42;;;;;;;18.17;12.23;;;;;;;;;;4974593;28;20475;-75
2021/09/11 12:19:13;;;;;;;30.38;14.70;;;;;;;;;;4992484;28;20105;-73
2021/09/11 12:21:39;;;;;;;21.98;12.88;;;;;;;;;;4974723;28;20096;-75
2021/09/11 12:24:05;;;;;;;19.25;11.85;;;;;;;;;;4992143;28;20462;-74
2021/09/11 12:26:32;;;;;;;18.15;11.43;;;;;;;;;;4992394;28;20030;-73
2021/09/11 12:29:18;;;;;;;23.50;13.63;;;;;;;;;;4992235;28;20046;-76
2021/09/11 12:31:57;;;;;;;20.13;13.32;;;;;;;;;;4992178;28;20058;-75
2021/09/11 12:34:23;;;;;;;16.60;10.90;;;;;;;;;;4992275;28;20522;-73
2021/09/11 12:36:54;;;;;;;21.42;11.38;;;;;;;;;;4993497;28;20069;-74
2021/09/11 12:39:33;;;;;;;18.33;11.73;;;;;;;;;;4991917;28;20030;-74
2021/09/11 12:42:01;;;;;;;16.98;11.90;;;;;;;;;;4958403;28;20483;-73
2021/09/11 12:44:32;;;;;;;20.02;12.73;;;;;;;;;;4974189;28;20028;-74
2021/09/11 12:47:03;;;;;;;21.02;11.35;;;;;;;;;;4974213;28;20026;-73
2021/09/11 12:49:30;;;;;;;18.23;11.52;;;;;;;;;;4991407;28;20034;-73
2021/09/11 12:51:57;;;;;;;18.38;12.13;;;;;;;;;;4973885;28;20034;-74
2021/09/11 12:54:23;;;;;;;18.75;11.40;;;;;;;;;;4991236;28;20026;-74
2021/09/11 12:56:49;;;;;;;16.83;12.00;;;;;;;;;;4974171;28;20042;-72
2021/09/11 12:59:15;;;;;;;15.18;11.05;;;;;;;;;;4991371;28;20033;-73
2021/09/11 13:01:42;;;;;;;17.27;11.52;;;;;;;;;;4991250;28;20031;-75
2021/09/11 13:04:12;;;;;;;18.65;11.13;;;;;;;;;;4991341;28;20022;-72
2021/09/11 13:06:41;;;;;;;15.10;10.73;;;;;;;;;;4991207;28;20382;-73
2021/09/11 13:09:11;;;;;;;15.77;12.00;;;;;;;;;;4991428;28;20513;-73
2021/09/11 13:11:37;;;;;;;16.20;11.57;;;;;;;;;;4991368;28;20030;-75
2021/09/11 13:14:06;;;;;;;14.35;11.45;;;;;;;;;;4973817;28;20037;-74
2021/09/11 13:16:33;;;;;;;17.00;11.32;;;;;;;;;;4973078;28;20398;-74
2021/09/11 13:18:58;;;;;;;15.02;10.52;;;;;;;;;;4973372;28;20480;-74
2021/09/11 13:21:25;;;;;;;14.77;11.57;;;;;;;;;;4990892;28;20124;-72
2021/09/11 13:23:55;;;;;;;16.75;11.43;;;;;;;;;;4957241;28;20026;-72
2021/09/11 13:26:24;;;;;;;16.83;10.67;;;;;;;;;;4991060;28;20026;-73
2021/09/11 13:28:51;;;;;;;17.42;11.15;;;;;;;;;;4973297;28;20571;-74
2021/09/11 13:31:18;;;;;;;13.20;11.00;;;;;;;;;;4973734;28;20112;-73
2021/09/11 13:33:50;;;;;;;17.20;11.57;;;;;;;;;;4973504;28;20386;-74
2021/09/11 13:36:19;;;;;;;14.38;11.13;;;;;;;;;;4973423;28;20025;-73
2021/09/11 13:38:44;;;;;;;15.15;10.88;;;;;;;;;;4973538;28;20035;-74
2021/09/11 13:41:10;;;;;;;15.40;11.35;;;;;;;;;;4972923;28;20081;-73
2021/09/11 13:43:36;;;;;;;12.93;9.98;;;;;;;;;;4973288;28;20458;-72
2021/09/11 13:46:03;;;;;;;17.48;11.18;;;;;;;;;;4972980;28;20058;-72
2021/09/11 13:48:28;;;;;;;19.35;11.90;;;;;;;;;;4990302;28;20026;-73
2021/09/11 13:50:54;;;;;;;17.38;11.23;;;;;;;;;;4990657;28;20037;-72
2021/09/11 13:53:20;;;;;;;18.08;12.05;;;;;;;;;;4990426;28;20387;-72
2021/09/11 13:55:46;;;;;;;17.58;12.15;;;;;;;;;;4990649;28;20053;-74
2021/09/11 13:58:12;;;;;;;21.75;12.82;;;;;;;;;;4990403;28;20031;-73
2021/09/11 14:00:37;;;;;;;26.70;12.52;;;;;;;;;;4972800;28;20018;-73
2021/09/11 14:03:03;;;;;;;23.02;15.40;;;;;;;;;;4972720;28;20042;-74
2021/09/11 14:05:29;;;;;;;18.65;11.93;;;;;;;;;;4972552;28;20628;-72
2021/09/11 14:07:55;;;;;;;16.58;11.95;;;;;;;;;;4972831;28;20474;-73
2021/09/11 14:10:21;;;;;;;15.30;12.23;;;;;;;;;;4990350;28;20019;-73
2021/09/11 14:12:47;;;;;;;15.73;11.57;;;;;;;;;;4989845;28;20026;-73
2021/09/11 14:15:14;;;;;;;13.73;11.48;;;;;;;;;;4990343;28;20030;-74
2021/09/11 14:17:40;;;;;;;15.23;10.50;;;;;;;;;;4972712;28;20106;-73
2021/09/11 14:20:06;;;;;;;23.92;12.77;;;;;;;;;;4990343;28;20050;-73
2021/09/11 14:22:31;;;;;;;19.60;14.02;;;;;;;;;;4989975;28;20081;-74